Time,TemperatureF,DewpointF,PressureIn,WindDirection,WindDirectionDegrees,WindSpeedMPH,WindSpeedGustMPH,Humidity,HourlyPrecipIn,Conditions,Clouds,dailyrainin,SoftwareType,DateUTC
2013-01-16 00:02:00,15.5,13.3,30.17,WSW,245,2.0,2.0,91,0.00,,,0.00,Wunderground v.1.15,2013-01-16 06:02:00,
2013-01-16 00:07:00,15.7,13.5,30.17,WSW,246,2.0,4.0,91,0.00,,,0.00,Wunderground v.1.15,2013-01-16 06:07:00,
2013-01-16 00:12:00,15.7,13.5,30.17,WSW,246,2.0,3.0,91,0.00,,,0.00,Wunderground v.1.15,2013-01-16 06:12:00,
2013-01-16 00:17:00,15.4,13.0,30.17,WSW,245,2.0,3.0,90,0.00,,,0.00,Wunderground v.1.15,2013-01-16 06:17:00,
2013-01-16 00:22:00,15.5,13.3,30.17,WSW,248,2.0,4.0,91,0.00,,,0.00,Wunderground v.1.15,2013-01-16 06:22:00,
2013-01-16 00:27:00,15.8,13.6,30.16,WSW,249,3.0,4.0,91,0.00,,,0.00,Wunderground v.1.15,2013-01-16 06:27:00,
2013-01-16 00:33:00,15.9,13.7,30.16,West,259,3.0,4.0,91,0.00,,,0.00,Wunderground v.1.15,2013-01-16 06:33:00,
2013-01-16 00:38:00,16.0,13.6,30.16,West,265,3.0,4.0,90,0.00,,,0.00,Wunderground v.1.15,2013-01-16 06:38:00,
2013-01-16 00:43:00,15.6,12.9,30.15,WSW,251,3.0,3.0,89,0.00,,,0.00,Wunderground v.1.15,2013-01-16 06:43:00,
2013-01-16 00:48:00,15.3,12.6,30.15,SW,220,3.0,3.0,89,0.00,,,0.00,Wunderground v.1.15,2013-01-16 06:48:00,
2013-01-16 00:54:00,14.7,12.0,30.15,SSW,207,3.0,4.0,89,0.00,,,0.00,Wunderground v.1.15,2013-01-16 06:54:00,
2013-01-16 01:00:00,14.5,12.1,30.15,SSW,208,3.0,3.0,90,0.00,,,0.00,Wunderground v.1.15,2013-01-16 07:00:00,
2013-01-16 01:05:00,14.4,12.0,30.15,SSW,208,3.0,3.0,90,0.00,,,0.00,Wunderground v.1.15,2013-01-16 07:05:00,
2013-01-16 01:10:00,14.0,11.6,30.14,SSW,203,3.0,3.0,90,0.00,,,0.00,Wunderground v.1.15,2013-01-16 07:10:00,
2013-01-16 01:15:00,13.6,11.2,30.14,SSW,199,3.0,4.0,90,0.00,,,0.00,Wunderground v.1.15,2013-01-16 07:15:00,
2013-01-16 01:20:00,13.2,10.8,30.14,SSW,202,3.0,4.0,90,0.00,,,0.00,Wunderground v.1.15,2013-01-16 07:20:00,
2013-01-16 01:25:00,12.9,10.5,30.13,SSW,197,3.0,5.0,90,0.00,,,0.00,Wunderground v.1.15,2013-01-16 07:25:00,
2013-01-16 01:30:00,12.8,10.7,30.13,SSW,194,4.0,4.0,91,0.00,,,0.00,Wunderground v.1.15,2013-01-16 07:30:00,
2013-01-16 01:36:00,12.8,10.7,30.13,SSW,199,4.0,6.0,91,0.00,,,0.00,Wunderground v.1.15,2013-01-16 07:36:00,
2013-01-16 01:41:00,12.9,11.0,30.14,SSW,200,4.0,5.0,92,0.00,,,0.00,Wunderground v.1.15,2013-01-16 07:41:00,
2013-01-16 01:46:00,13.1,11.2,30.13,SSW,194,4.0,6.0,92,0.00,,,0.00,Wunderground v.1.15,2013-01-16 07:46:00,
2013-01-16 01:51:00,13.4,11.5,30.14,SSW,200,4.0,4.0,92,0.00,,,0.00,Wunderground v.1.15,2013-01-16 07:51:00,
2013-01-16 01:56:00,13.4,11.5,30.13,SSW,200,5.0,7.0,92,0.00,,,0.00,Wunderground v.1.15,2013-01-16 07:56:00,
2013-01-16 02:01:00,13.2,11.1,30.13,SSW,212,5.0,7.0,91,0.00,,,0.00,Wunderground v.1.15,2013-01-16 08:01:00,
2013-01-16 02:06:00,13.2,11.1,30.13,SSW,196,4.0,7.0,91,0.00,,,0.00,Wunderground v.1.15,2013-01-16 08:06:00,
2013-01-16 02:11:00,13.0,10.9,30.14,SSW,196,4.0,4.0,91,0.00,,,0.00,Wunderground v.1.15,2013-01-16 08:11:00,
2013-01-16 02:17:00,13.0,10.9,30.13,South,190,4.0,7.0,91,0.00,,,0.00,Wunderground v.1.15,2013-01-16 08:17:00,
2013-01-16 02:22:00,13.0,10.9,30.13,South,189,5.0,6.0,91,0.00,,,0.00,Wunderground v.1.15,2013-01-16 08:22:00,
2013-01-16 02:27:00,13.1,11.0,30.13,SSW,193,5.0,6.0,91,0.00,,,0.00,Wunderground v.1.15,2013-01-16 08:27:00,
2013-01-16 02:32:00,13.3,11.2,30.13,South,188,5.0,7.0,91,0.00,,,0.00,Wunderground v.1.15,2013-01-16 08:32:00,
2013-01-16 02:37:00,13.3,11.2,30.13,SSW,198,6.0,7.0,91,0.00,,,0.00,Wunderground v.1.15,2013-01-16 08:37:00,
2013-01-16 02:43:00,13.4,11.3,30.12,SSW,207,6.0,10.0,91,0.00,,,0.00,Wunderground v.1.15,2013-01-16 08:43:00,
2013-01-16 02:49:00,13.5,11.1,30.12,SSW,196,6.0,10.0,90,0.00,,,0.00,Wunderground v.1.15,2013-01-16 08:49:00,
2013-01-16 02:55:00,13.6,11.2,30.12,SSW,209,6.0,7.0,90,0.00,,,0.00,Wunderground v.1.15,2013-01-16 08:55:00,
2013-01-16 03:00:00,13.6,11.0,30.12,South,185,6.0,6.0,89,0.00,,,0.00,Wunderground v.1.15,2013-01-16 09:00:00,
2013-01-16 03:05:00,13.6,11.0,30.12,SSW,193,6.0,7.0,89,0.00,,,0.00,Wunderground v.1.15,2013-01-16 09:05:00,
2013-01-16 03:11:00,13.5,10.9,30.12,South,190,6.0,7.0,89,0.00,,,0.00,Wunderground v.1.15,2013-01-16 09:11:00,
2013-01-16 03:17:00,13.5,10.9,30.11,South,186,6.0,7.0,89,0.00,,,0.00,Wunderground v.1.15,2013-01-16 09:17:00,
2013-01-16 03:22:00,13.5,10.6,30.11,South,188,6.0,8.0,88,0.00,,,0.00,Wunderground v.1.15,2013-01-16 09:22:00,
2013-01-16 03:27:00,13.5,10.6,30.10,SSW,192,6.0,8.0,88,0.00,,,0.00,Wunderground v.1.15,2013-01-16 09:27:00,
2013-01-16 03:33:00,13.5,10.6,30.10,SSW,208,6.0,7.0,88,0.00,,,0.00,Wunderground v.1.15,2013-01-16 09:33:00,
2013-01-16 03:39:00,13.6,10.7,30.10,SSW,193,6.0,7.0,88,0.00,,,0.00,Wunderground v.1.15,2013-01-16 09:39:00,
2013-01-16 03:44:00,13.7,10.5,30.10,SSW,192,6.0,8.0,87,0.00,,,0.00,Wunderground v.1.15,2013-01-16 09:44:00,
2013-01-16 03:49:00,13.7,10.5,30.09,South,191,6.0,8.0,87,0.00,,,0.00,Wunderground v.1.15,2013-01-16 09:49:00,
2013-01-16 03:54:00,13.6,10.5,30.09,SSW,192,6.0,7.0,87,0.00,,,0.00,Wunderground v.1.15,2013-01-16 09:54:00,
2013-01-16 04:00:00,13.6,10.5,30.08,South,190,6.0,7.0,87,0.00,,,0.00,Wunderground v.1.15,2013-01-16 10:00:00,
2013-01-16 04:05:00,13.7,10.5,30.08,South,184,6.0,7.0,87,0.00,,,0.00,Wunderground v.1.15,2013-01-16 10:05:00,
2013-01-16 04:10:00,13.8,10.4,30.08,South,179,6.0,6.0,86,0.00,,,0.00,Wunderground v.1.15,2013-01-16 10:10:00,
2013-01-16 04:15:00,13.7,10.3,30.07,South,190,6.0,7.0,86,0.00,,,0.00,Wunderground v.1.15,2013-01-16 10:15:00,
2013-01-16 04:20:00,13.7,10.3,30.07,SSW,194,6.0,7.0,86,0.00,,,0.00,Wunderground v.1.15,2013-01-16 10:20:00,
2013-01-16 04:26:00,13.7,10.3,30.07,SSW,205,6.0,7.0,86,0.00,,,0.00,Wunderground v.1.15,2013-01-16 10:26:00,
2013-01-16 04:31:00,13.6,9.9,30.06,SSW,204,6.0,6.0,85,0.00,,,0.00,Wunderground v.1.15,2013-01-16 10:31:00,
2013-01-16 04:37:00,13.6,10.2,30.06,SSW,205,6.0,9.0,86,0.00,,,0.00,Wunderground v.1.15,2013-01-16 10:37:00,
2013-01-16 04:42:00,13.7,10.3,30.05,SSW,198,6.0,7.0,86,0.00,,,0.00,Wunderground v.1.15,2013-01-16 10:42:00,
2013-01-16 04:47:00,14.1,10.4,30.05,South,188,6.0,8.0,85,0.00,,,0.00,Wunderground v.1.15,2013-01-16 10:47:00,
2013-01-16 04:53:00,14.2,10.5,30.05,SSW,201,6.0,6.0,85,0.00,,,0.00,Wunderground v.1.15,2013-01-16 10:53:00,
2013-01-16 04:58:00,14.0,10.3,30.05,SSW,211,6.0,7.0,85,0.00,,,0.00,Wunderground v.1.15,2013-01-16 10:58:00,
2013-01-16 05:04:00,14.0,10.3,30.05,SSW,209,6.0,8.0,85,0.00,,,0.00,Wunderground v.1.15,2013-01-16 11:04:00,
2013-01-16 05:10:00,13.9,10.2,30.05,SW,215,6.0,8.0,85,0.00,,,0.00,Wunderground v.1.15,2013-01-16 11:10:00,
2013-01-16 05:16:00,14.0,10.1,30.05,SSW,209,7.0,13.0,84,0.00,,,0.00,Wunderground v.1.15,2013-01-16 11:16:00,
2013-01-16 05:21:00,14.1,10.2,30.04,SSW,201,7.0,7.0,84,0.00,,,0.00,Wunderground v.1.15,2013-01-16 11:21:00,
2013-01-16 05:27:00,14.3,10.4,30.05,SSW,200,7.0,10.0,84,0.00,,,0.00,Wunderground v.1.15,2013-01-16 11:27:00,
2013-01-16 05:32:00,14.4,10.4,30.04,SW,214,7.0,9.0,84,0.00,,,0.00,Wunderground v.1.15,2013-01-16 11:32:00,
2013-01-16 05:38:00,14.5,10.3,30.04,South,181,7.0,9.0,83,0.00,,,0.00,Wunderground v.1.15,2013-01-16 11:38:00,
2013-01-16 05:44:00,14.4,10.2,30.04,SSW,199,7.0,7.0,83,0.00,,,0.00,Wunderground v.1.15,2013-01-16 11:44:00,
2013-01-16 05:50:00,14.5,10.3,30.04,SSW,203,7.0,7.0,83,0.00,,,0.00,Wunderground v.1.15,2013-01-16 11:50:00,
2013-01-16 05:55:00,14.5,10.3,30.03,SW,219,7.0,7.0,83,0.00,,,0.00,Wunderground v.1.15,2013-01-16 11:55:00,
2013-01-16 06:01:00,14.5,10.3,30.03,SSW,197,7.0,7.0,83,0.00,,,0.00,Wunderground v.1.15,2013-01-16 12:01:00,
2013-01-16 06:06:00,14.6,10.4,30.02,SSW,202,8.0,10.0,83,0.00,,,0.00,Wunderground v.1.15,2013-01-16 12:06:00,
2013-01-16 06:12:00,14.7,10.5,30.02,South,190,7.0,10.0,83,0.00,,,0.00,Wunderground v.1.15,2013-01-16 12:12:00,
2013-01-16 06:18:00,14.6,10.4,30.02,SSW,196,7.0,10.0,83,0.00,,,0.00,Wunderground v.1.15,2013-01-16 12:18:00,
2013-01-16 06:24:00,14.4,10.2,30.01,SSW,201,7.0,10.0,83,0.00,,,0.00,Wunderground v.1.15,2013-01-16 12:24:00,
2013-01-16 06:29:00,14.1,9.9,30.01,South,177,8.0,10.0,83,0.00,,,0.00,Wunderground v.1.15,2013-01-16 12:29:00,
2013-01-16 06:34:00,13.9,9.7,30.00,South,187,7.0,10.0,83,0.00,,,0.00,Wunderground v.1.15,2013-01-16 12:34:00,
2013-01-16 06:39:00,13.9,10.0,30.00,SSW,195,8.0,10.0,84,0.00,,,0.00,Wunderground v.1.15,2013-01-16 12:39:00,
2013-01-16 06:45:00,14.0,10.1,30.00,SSW,203,9.0,10.0,84,0.00,,,0.00,Wunderground v.1.15,2013-01-16 12:45:00,
2013-01-16 06:51:00,14.1,9.9,30.00,SSW,194,9.0,11.0,83,0.00,,,0.00,Wunderground v.1.15,2013-01-16 12:51:00,
2013-01-16 06:57:00,14.3,10.1,30.00,SSW,205,9.0,12.0,83,0.00,,,0.00,Wunderground v.1.15,2013-01-16 12:57:00,
2013-01-16 07:02:00,14.4,10.2,30.00,South,182,9.0,11.0,83,0.00,,,0.00,Wunderground v.1.15,2013-01-16 13:02:00,
2013-01-16 07:08:00,14.4,9.9,30.00,SSW,198,9.0,11.0,82,0.00,,,0.00,Wunderground v.1.15,2013-01-16 13:08:00,
2013-01-16 07:13:00,14.4,9.9,30.00,SSW,195,8.0,8.0,82,0.00,,,0.00,Wunderground v.1.15,2013-01-16 13:13:00,
2013-01-16 07:18:00,14.3,9.8,30.01,SSW,196,7.0,8.0,82,0.00,,,0.00,Wunderground v.1.15,2013-01-16 13:18:00,
2013-01-16 07:24:00,14.6,10.1,30.01,SSW,208,7.0,10.0,82,0.00,,,0.00,Wunderground v.1.15,2013-01-16 13:24:00,
2013-01-16 07:29:00,14.7,10.2,30.01,South,188,7.0,10.0,82,0.00,,,0.00,Wunderground v.1.15,2013-01-16 13:29:00,
2013-01-16 07:35:00,14.8,10.3,30.01,SSW,196,7.0,8.0,82,0.00,,,0.00,Wunderground v.1.15,2013-01-16 13:35:00,
2013-01-16 07:40:00,15.1,10.3,30.00,SSW,197,8.0,12.0,81,0.00,,,0.00,Wunderground v.1.15,2013-01-16 13:40:00,
2013-01-16 07:46:00,15.6,10.8,30.00,South,183,9.0,12.0,81,0.00,,,0.00,Wunderground v.1.15,2013-01-16 13:46:00,
2013-01-16 07:52:00,16.1,11.0,30.00,SW,227,8.0,8.0,80,0.00,,,0.00,Wunderground v.1.15,2013-01-16 13:52:00,
2013-01-16 07:58:00,16.6,11.5,30.01,SW,215,8.0,9.0,80,0.00,,,0.00,Wunderground v.1.15,2013-01-16 13:58:00,
2013-01-16 08:04:00,17.2,12.1,30.01,SSW,202,9.0,14.0,80,0.00,,,0.00,Wunderground v.1.15,2013-01-16 14:04:00,
2013-01-16 08:10:00,17.8,12.4,30.01,SW,223,9.0,11.0,79,0.00,,,0.00,Wunderground v.1.15,2013-01-16 14:10:00,
2013-01-16 08:15:00,18.2,12.5,30.00,SSW,198,10.0,12.0,78,0.00,,,0.00,Wunderground v.1.15,2013-01-16 14:15:00,
2013-01-16 08:21:00,18.6,12.9,30.00,SSW,211,10.0,10.0,78,0.00,,,0.00,Wunderground v.1.15,2013-01-16 14:21:00,
2013-01-16 08:27:00,18.9,12.9,30.00,South,189,9.0,15.0,77,0.00,,,0.00,Wunderground v.1.15,2013-01-16 14:27:00,
2013-01-16 08:32:00,19.2,13.2,30.00,SW,221,9.0,10.0,77,0.00,,,0.00,Wunderground v.1.15,2013-01-16 14:32:00,
2013-01-16 08:38:00,19.6,13.6,30.00,SW,221,8.0,11.0,77,0.00,,,0.00,Wunderground v.1.15,2013-01-16 14:38:00,
2013-01-16 08:44:00,20.1,14.0,30.00,SSW,206,9.0,13.0,77,0.00,,,0.00,Wunderground v.1.15,2013-01-16 14:44:00,
2013-01-16 08:49:00,20.4,14.0,29.99,SW,223,11.0,15.0,76,0.00,,,0.00,Wunderground v.1.15,2013-01-16 14:49:00,
2013-01-16 08:55:00,20.8,14.4,29.99,SW,228,11.0,12.0,76,0.00,,,0.00,Wunderground v.1.15,2013-01-16 14:55:00,
2013-01-16 09:01:00,21.1,14.4,29.98,SSW,209,10.0,11.0,75,0.00,,,0.00,Wunderground v.1.15,2013-01-16 15:01:00,
2013-01-16 09:07:00,21.5,14.8,29.98,SW,214,11.0,18.0,75,0.00,,,0.00,Wunderground v.1.15,2013-01-16 15:07:00,
2013-01-16 09:13:00,21.9,15.5,29.98,SSW,210,12.0,17.0,76,0.00,,,0.00,Wunderground v.1.15,2013-01-16 15:13:00,
2013-01-16 09:19:00,22.2,15.5,29.98,SSW,211,11.0,18.0,75,0.00,,,0.00,Wunderground v.1.15,2013-01-16 15:19:00,
2013-01-16 09:25:00,22.6,16.2,29.98,SW,218,11.0,17.0,76,0.00,,,0.00,Wunderground v.1.15,2013-01-16 15:25:00,
2013-01-16 09:30:00,22.9,16.2,29.97,SSW,207,11.0,11.0,75,0.00,,,0.00,Wunderground v.1.15,2013-01-16 15:30:00,
2013-01-16 09:36:00,23.3,16.9,29.97,SSW,211,11.0,15.0,76,0.00,,,0.00,Wunderground v.1.15,2013-01-16 15:36:00,
2013-01-16 09:41:00,23.6,16.5,29.97,SSW,209,11.0,12.0,74,0.00,,,0.00,Wunderground v.1.15,2013-01-16 15:41:00,
2013-01-16 09:46:00,24.0,17.2,29.97,SSW,211,11.0,18.0,75,0.00,,,0.00,Wunderground v.1.15,2013-01-16 15:46:00,
2013-01-16 09:51:00,24.2,17.4,29.97,SSW,198,11.0,16.0,75,0.00,,,0.00,Wunderground v.1.15,2013-01-16 15:51:00,
2013-01-16 09:57:00,24.5,17.7,29.97,WSW,245,11.0,16.0,75,0.00,,,0.00,Wunderground v.1.15,2013-01-16 15:57:00,
2013-01-16 10:02:00,24.9,17.8,29.97,SW,227,11.0,12.0,74,0.00,,,0.00,Wunderground v.1.15,2013-01-16 16:02:00,
2013-01-16 10:08:00,25.4,18.3,29.96,SSW,208,12.0,14.0,74,0.00,,,0.00,Wunderground v.1.15,2013-01-16 16:08:00,
2013-01-16 10:14:00,25.9,18.7,29.96,SW,218,13.0,14.0,74,0.00,,,0.00,Wunderground v.1.15,2013-01-16 16:14:00,
2013-01-16 10:19:00,26.2,19.4,29.96,SW,219,12.0,14.0,75,0.00,,,0.00,Wunderground v.1.15,2013-01-16 16:19:00,
2013-01-16 10:25:00,26.7,19.5,29.95,SW,220,13.0,17.0,74,0.00,,,0.00,Wunderground v.1.15,2013-01-16 16:25:00,
2013-01-16 10:31:00,27.0,19.8,29.95,SSW,195,13.0,16.0,74,0.00,,,0.00,Wunderground v.1.15,2013-01-16 16:31:00,
2013-01-16 10:36:00,27.2,19.7,29.94,SW,217,13.0,16.0,73,0.00,,,0.00,Wunderground v.1.15,2013-01-16 16:36:00,
2013-01-16 10:41:00,27.6,20.4,29.95,SSW,197,13.0,16.0,74,0.00,,,0.00,Wunderground v.1.15,2013-01-16 16:41:00,
2013-01-16 10:47:00,27.9,20.4,29.94,SSW,202,13.0,19.0,73,0.00,,,0.00,Wunderground v.1.15,2013-01-16 16:47:00,
2013-01-16 10:53:00,28.2,21.0,29.94,SW,232,13.0,13.0,74,0.00,,,0.00,Wunderground v.1.15,2013-01-16 16:53:00,
2013-01-16 10:59:00,28.5,21.3,29.93,SW,221,13.0,18.0,74,0.00,,,0.00,Wunderground v.1.15,2013-01-16 16:59:00,
2013-01-16 11:04:00,28.8,21.2,29.93,SSW,198,13.0,15.0,73,0.00,,,0.00,Wunderground v.1.15,2013-01-16 17:04:00,
2013-01-16 11:09:00,29.1,21.8,29.93,SSW,211,12.0,15.0,74,0.00,,,0.00,Wunderground v.1.15,2013-01-16 17:09:00,
2013-01-16 11:15:00,29.2,21.6,29.93,SW,236,12.0,19.0,73,0.00,,,0.00,Wunderground v.1.15,2013-01-16 17:15:00,
2013-01-16 11:20:00,29.5,21.9,29.92,SSW,205,13.0,13.0,73,0.00,,,0.00,Wunderground v.1.15,2013-01-16 17:20:00,
2013-01-16 11:26:00,29.8,22.2,29.92,North,360,15.0,18.0,73,0.00,,,0.00,Wunderground v.1.15,2013-01-16 17:26:00,
2013-01-16 11:32:00,30.1,22.5,29.92,WSW,249,16.0,16.0,73,0.00,,,0.00,Wunderground v.1.15,2013-01-16 17:32:00,
2013-01-16 11:37:00,30.2,22.3,29.91,SSW,212,16.0,25.0,72,0.00,,,0.00,Wunderground v.1.15,2013-01-16 17:37:00,
2013-01-16 11:43:00,30.6,23.3,29.91,WSW,240,15.0,20.0,74,0.00,,,0.00,Wunderground v.1.15,2013-01-16 17:43:00,
2013-01-16 11:49:00,30.6,23.0,29.91,West,259,14.0,20.0,73,0.00,,,0.00,Wunderground v.1.15,2013-01-16 17:49:00,
2013-01-16 11:55:00,31.0,24.0,29.90,SSW,210,16.0,21.0,75,0.00,,,0.00,Wunderground v.1.15,2013-01-16 17:55:00,
2013-01-16 12:01:00,31.4,23.7,29.90,SW,227,17.0,21.0,73,0.00,,,0.00,Wunderground v.1.15,2013-01-16 18:01:00,
2013-01-16 12:06:00,31.7,23.7,29.90,SSE,163,17.0,21.0,72,0.00,,,0.00,Wunderground v.1.15,2013-01-16 18:06:00,
2013-01-16 12:12:00,32.1,24.4,29.89,WSW,255,17.0,21.0,73,0.00,,,0.00,Wunderground v.1.15,2013-01-16 18:12:00,
2013-01-16 12:17:00,32.1,23.8,29.89,SW,222,17.0,21.0,71,0.00,,,0.00,Wunderground v.1.15,2013-01-16 18:17:00,
2013-01-16 12:23:00,32.5,24.1,29.89,SSW,202,15.0,16.0,71,0.00,,,0.00,Wunderground v.1.15,2013-01-16 18:23:00,
2013-01-16 12:29:00,32.8,24.1,29.88,SSW,211,14.0,18.0,70,0.00,,,0.00,Wunderground v.1.15,2013-01-16 18:29:00,
2013-01-16 12:35:00,32.6,24.2,29.89,WSW,248,14.0,19.0,71,0.00,,,0.00,Wunderground v.1.15,2013-01-16 18:35:00,
2013-01-16 12:40:00,33.1,24.7,29.88,SW,224,15.0,18.0,71,0.00,,,0.00,Wunderground v.1.15,2013-01-16 18:40:00,
2013-01-16 12:45:00,32.9,24.2,29.89,SSW,211,17.0,22.0,70,0.00,,,0.00,Wunderground v.1.15,2013-01-16 18:45:00,
2013-01-16 12:50:00,32.6,24.2,29.89,SW,231,18.0,19.0,71,0.00,,,0.00,Wunderground v.1.15,2013-01-16 18:50:00,
2013-01-16 12:55:00,32.4,24.7,29.89,SW,217,16.0,19.0,73,0.00,,,0.00,Wunderground v.1.15,2013-01-16 18:55:00,
2013-01-16 13:00:00,32.3,24.9,29.89,SW,223,14.0,14.0,74,0.00,,,0.00,Wunderground v.1.15,2013-01-16 19:00:00,
2013-01-16 13:06:00,32.2,24.8,29.89,SW,234,13.0,15.0,74,0.00,,,0.00,Wunderground v.1.15,2013-01-16 19:06:00,
2013-01-16 13:11:00,32.3,24.9,29.89,West,271,12.0,12.0,74,0.00,,,0.00,Wunderground v.1.15,2013-01-16 19:11:00,
2013-01-16 13:16:00,32.5,25.5,29.89,SW,232,12.0,12.0,75,0.00,,,0.00,Wunderground v.1.15,2013-01-16 19:16:00,
2013-01-16 13:21:00,32.5,25.1,29.89,SW,221,11.0,11.0,74,0.00,,,0.00,Wunderground v.1.15,2013-01-16 19:21:00,
2013-01-16 13:27:00,32.5,25.1,29.89,NW,315,11.0,15.0,74,0.00,,,0.00,Wunderground v.1.15,2013-01-16 19:27:00,
2013-01-16 13:33:00,32.7,25.3,29.89,SSW,200,10.0,16.0,74,0.00,,,0.00,Wunderground v.1.15,2013-01-16 19:33:00,
2013-01-16 13:39:00,32.8,25.4,29.89,SW,234,9.0,16.0,74,0.00,,,0.00,Wunderground v.1.15,2013-01-16 19:39:00,
2013-01-16 13:44:00,32.7,25.3,29.90,SW,225,9.0,14.0,74,0.00,,,0.00,Wunderground v.1.15,2013-01-16 19:44:00,
2013-01-16 13:50:00,32.8,25.7,29.90,SW,225,9.0,9.0,75,0.00,,,0.00,Wunderground v.1.15,2013-01-16 19:50:00,
2013-01-16 13:55:00,33.0,25.3,29.90,WSW,255,10.0,21.0,73,0.00,,,0.00,Wunderground v.1.15,2013-01-16 19:55:00,
2013-01-16 14:00:00,33.2,25.1,29.89,SW,219,10.0,10.0,72,0.00,,,0.00,Wunderground v.1.15,2013-01-16 20:00:00,
2013-01-16 14:05:00,33.4,25.7,29.90,West,269,9.0,11.0,73,0.00,,,0.00,Wunderground v.1.15,2013-01-16 20:05:00,
2013-01-16 14:10:00,33.5,25.8,29.90,SSW,203,8.0,10.0,73,0.00,,,0.00,Wunderground v.1.15,2013-01-16 20:10:00,
2013-01-16 14:16:00,33.5,25.4,29.90,West,266,9.0,13.0,72,0.00,,,0.00,Wunderground v.1.15,2013-01-16 20:16:00,
2013-01-16 14:21:00,33.6,25.5,29.90,WSW,249,9.0,10.0,72,0.00,,,0.00,Wunderground v.1.15,2013-01-16 20:21:00,
2013-01-16 14:26:00,33.6,25.5,29.90,SW,220,9.0,12.0,72,0.00,,,0.00,Wunderground v.1.15,2013-01-16 20:26:00,
2013-01-16 14:31:00,33.7,26.0,29.90,WSW,241,10.0,11.0,73,0.00,,,0.00,Wunderground v.1.15,2013-01-16 20:31:00,
2013-01-16 14:37:00,33.7,26.0,29.90,WSW,242,11.0,17.0,73,0.00,,,0.00,Wunderground v.1.15,2013-01-16 20:37:00,
2013-01-16 14:43:00,33.8,26.1,29.90,West,261,11.0,15.0,73,0.00,,,0.00,Wunderground v.1.15,2013-01-16 20:43:00,
2013-01-16 14:49:00,33.9,26.5,29.90,WSW,242,11.0,17.0,74,0.00,,,0.00,Wunderground v.1.15,2013-01-16 20:49:00,
2013-01-16 14:54:00,34.0,26.6,29.90,SW,227,12.0,14.0,74,0.00,,,0.00,Wunderground v.1.15,2013-01-16 20:54:00,
2013-01-16 15:00:00,34.1,26.7,29.90,SW,232,12.0,15.0,74,0.00,,,0.00,Wunderground v.1.15,2013-01-16 21:00:00,
2013-01-16 15:05:00,34.1,27.0,29.91,SW,234,11.0,17.0,75,0.00,,,0.00,Wunderground v.1.15,2013-01-16 21:05:00,
2013-01-16 15:11:00,34.0,26.6,29.92,SW,217,11.0,13.0,74,0.00,,,0.00,Wunderground v.1.15,2013-01-16 21:11:00,
2013-01-16 15:16:00,34.0,26.9,29.92,WSW,245,10.0,15.0,75,0.00,,,0.00,Wunderground v.1.15,2013-01-16 21:16:00,
2013-01-16 15:21:00,33.9,26.8,29.92,SW,227,11.0,11.0,75,0.00,,,0.00,Wunderground v.1.15,2013-01-16 21:21:00,
2013-01-16 15:26:00,33.9,27.1,29.92,SW,217,10.0,11.0,76,0.00,,,0.00,Wunderground v.1.15,2013-01-16 21:26:00,
2013-01-16 15:32:00,33.9,27.1,29.92,WSW,246,10.0,12.0,76,0.00,,,0.00,Wunderground v.1.15,2013-01-16 21:32:00,
2013-01-16 15:37:00,33.9,27.1,29.93,SSW,206,11.0,13.0,76,0.00,,,0.00,Wunderground v.1.15,2013-01-16 21:37:00,
2013-01-16 15:42:00,34.0,27.5,29.93,SSW,211,9.0,10.0,77,0.00,,,0.00,Wunderground v.1.15,2013-01-16 21:42:00,
2013-01-16 15:47:00,33.9,27.4,29.94,WSW,239,8.0,10.0,77,0.00,,,0.00,Wunderground v.1.15,2013-01-16 21:47:00,
2013-01-16 15:53:00,33.9,27.8,29.94,SW,229,9.0,14.0,78,0.00,,,0.00,Wunderground v.1.15,2013-01-16 21:53:00,
2013-01-16 15:59:00,33.9,27.8,29.95,West,265,10.0,14.0,78,0.00,,,0.00,Wunderground v.1.15,2013-01-16 21:59:00,
2013-01-16 16:04:00,34.0,28.2,29.95,SSW,207,9.0,10.0,79,0.00,,,0.00,Wunderground v.1.15,2013-01-16 22:04:00,
2013-01-16 16:09:00,34.1,28.3,29.95,WSW,240,9.0,11.0,79,0.00,,,0.00,Wunderground v.1.15,2013-01-16 22:09:00,
2013-01-16 16:14:00,34.0,28.2,29.95,WSW,248,9.0,13.0,79,0.00,,,0.00,Wunderground v.1.15,2013-01-16 22:14:00,
2013-01-16 16:20:00,34.0,28.2,29.95,WSW,255,9.0,9.0,79,0.00,,,0.00,Wunderground v.1.15,2013-01-16 22:20:00,
2013-01-16 16:26:00,34.0,28.2,29.96,SW,235,9.0,15.0,79,0.00,,,0.00,Wunderground v.1.15,2013-01-16 22:26:00,
2013-01-16 16:32:00,34.0,28.2,29.96,SW,228,9.0,11.0,79,0.00,,,0.00,Wunderground v.1.15,2013-01-16 22:32:00,
2013-01-16 16:37:00,33.9,28.1,29.96,SW,218,9.0,11.0,79,0.00,,,0.00,Wunderground v.1.15,2013-01-16 22:37:00,
2013-01-16 16:43:00,33.7,27.9,29.96,SW,215,8.0,9.0,79,0.00,,,0.00,Wunderground v.1.15,2013-01-16 22:43:00,
2013-01-16 16:48:00,33.6,28.1,29.96,WSW,243,7.0,9.0,80,0.00,,,0.00,Wunderground v.1.15,2013-01-16 22:48:00,
2013-01-16 16:53:00,33.4,27.9,29.96,SW,219,7.0,8.0,80,0.00,,,0.00,Wunderground v.1.15,2013-01-16 22:53:00,
2013-01-16 16:58:00,33.4,28.2,29.97,SW,223,7.0,8.0,81,0.00,,,0.00,Wunderground v.1.15,2013-01-16 22:58:00,
2013-01-16 17:04:00,33.3,28.1,29.97,SSW,212,6.0,7.0,81,0.00,,,0.00,Wunderground v.1.15,2013-01-16 23:04:00,
2013-01-16 17:09:00,33.2,28.0,29.97,SSW,210,5.0,7.0,81,0.00,,,0.00,Wunderground v.1.15,2013-01-16 23:09:00,
2013-01-16 17:15:00,32.9,28.0,29.98,SSW,208,5.0,6.0,82,0.00,,,0.00,Wunderground v.1.15,2013-01-16 23:15:00,
2013-01-16 17:20:00,32.6,28.0,29.98,SSW,202,5.0,7.0,83,0.00,,,0.00,Wunderground v.1.15,2013-01-16 23:20:00,
2013-01-16 17:25:00,32.3,27.7,29.97,SW,222,5.0,7.0,83,0.00,,,0.00,Wunderground v.1.15,2013-01-16 23:25:00,
2013-01-16 17:30:00,32.0,27.7,29.97,WSW,238,5.0,6.0,84,0.00,,,0.00,Wunderground v.1.15,2013-01-16 23:30:00,
2013-01-16 17:36:00,31.7,27.4,29.97,SSW,213,6.0,7.0,84,0.00,,,0.00,Wunderground v.1.15,2013-01-16 23:36:00,
2013-01-16 17:42:00,31.5,27.5,29.98,WSW,240,5.0,6.0,85,0.00,,,0.00,Wunderground v.1.15,2013-01-16 23:42:00,
2013-01-16 17:48:00,31.5,27.8,29.99,WSW,254,4.0,6.0,86,0.00,,,0.00,Wunderground v.1.15,2013-01-16 23:48:00,
2013-01-16 17:54:00,31.4,27.4,29.99,SW,227,3.0,5.0,85,0.00,,,0.00,Wunderground v.1.15,2013-01-16 23:54:00,
2013-01-16 17:59:00,31.0,27.0,29.99,SW,218,4.0,6.0,85,0.00,,,0.00,Wunderground v.1.15,2013-01-16 23:59:00,
2013-01-16 18:04:00,30.7,27.0,29.99,SW,233,4.0,5.0,86,0.00,,,0.00,Wunderground v.1.15,2013-01-17 00:04:00,
2013-01-16 18:09:00,30.6,27.2,29.99,SW,224,4.0,5.0,87,0.00,,,0.00,Wunderground v.1.15,2013-01-17 00:09:00,
2013-01-16 18:15:00,30.5,27.1,30.00,SW,224,4.0,4.0,87,0.00,,,0.00,Wunderground v.1.15,2013-01-17 00:15:00,
2013-01-16 18:20:00,30.2,26.8,29.99,SW,221,4.0,4.0,87,0.00,,,0.00,Wunderground v.1.15,2013-01-17 00:20:00,
2013-01-16 18:25:00,30.0,26.9,30.00,SW,224,4.0,5.0,88,0.00,,,0.00,Wunderground v.1.15,2013-01-17 00:25:00,
2013-01-16 18:31:00,30.1,27.0,30.00,SW,219,5.0,6.0,88,0.00,,,0.00,Wunderground v.1.15,2013-01-17 00:31:00,
2013-01-16 18:36:00,30.2,27.1,30.00,SW,229,5.0,6.0,88,0.00,,,0.00,Wunderground v.1.15,2013-01-17 00:36:00,
2013-01-16 18:42:00,30.0,26.9,30.01,SSW,212,4.0,5.0,88,0.00,,,0.00,Wunderground v.1.15,2013-01-17 00:42:00,
2013-01-16 18:47:00,29.7,26.6,30.01,SW,227,4.0,6.0,88,0.00,,,0.00,Wunderground v.1.15,2013-01-17 00:47:00,
2013-01-16 18:52:00,29.8,27.2,30.01,SW,216,5.0,6.0,90,0.00,,,0.00,Wunderground v.1.15,2013-01-17 00:52:00,
2013-01-16 18:57:00,30.2,27.6,30.01,WSW,238,5.0,6.0,90,0.00,,,0.00,Wunderground v.1.15,2013-01-17 00:57:00,
2013-01-16 19:03:00,30.5,27.9,30.02,SW,217,5.0,6.0,90,0.00,,,0.00,Wunderground v.1.15,2013-01-17 01:03:00,
2013-01-16 19:08:00,30.8,28.2,30.02,SW,224,6.0,6.0,90,0.00,,,0.00,Wunderground v.1.15,2013-01-17 01:08:00,
2013-01-16 19:14:00,31.2,28.3,30.02,SSW,192,6.0,8.0,89,0.00,,,0.00,Wunderground v.1.15,2013-01-17 01:14:00,
2013-01-16 19:19:00,31.4,28.5,30.03,SW,234,7.0,10.0,89,0.00,,,0.00,Wunderground v.1.15,2013-01-17 01:19:00,
2013-01-16 19:24:00,31.5,28.6,30.03,WSW,242,7.0,7.0,89,0.00,,,0.00,Wunderground v.1.15,2013-01-17 01:24:00,
2013-01-16 19:30:00,31.6,28.7,30.03,SW,234,6.0,6.0,89,0.00,,,0.00,Wunderground v.1.15,2013-01-17 01:30:00,
2013-01-16 19:36:00,31.6,28.7,30.03,WSW,255,5.0,7.0,89,0.00,,,0.00,Wunderground v.1.15,2013-01-17 01:36:00,
2013-01-16 19:41:00,31.7,28.8,30.03,SW,223,5.0,7.0,89,0.00,,,0.00,Wunderground v.1.15,2013-01-17 01:41:00,
2013-01-16 19:46:00,31.8,28.9,30.03,SW,233,5.0,8.0,89,0.00,,,0.00,Wunderground v.1.15,2013-01-17 01:46:00,
2013-01-16 19:52:00,31.8,28.9,30.04,SW,221,6.0,6.0,89,0.00,,,0.00,Wunderground v.1.15,2013-01-17 01:52:00,
2013-01-16 19:57:00,31.8,28.9,30.04,SSW,209,5.0,7.0,89,0.00,,,0.00,Wunderground v.1.15,2013-01-17 01:57:00,
2013-01-16 20:02:00,31.8,28.9,30.04,SSW,212,5.0,7.0,89,0.00,,,0.00,Wunderground v.1.15,2013-01-17 02:02:00,
2013-01-16 20:08:00,31.8,28.9,30.04,SW,215,6.0,7.0,89,0.00,,,0.00,Wunderground v.1.15,2013-01-17 02:08:00,
2013-01-16 20:13:00,31.8,28.9,30.04,SW,217,5.0,8.0,89,0.00,,,0.00,Wunderground v.1.15,2013-01-17 02:13:00,
2013-01-16 20:19:00,31.9,29.0,30.04,SSW,209,5.0,8.0,89,0.00,,,0.00,Wunderground v.1.15,2013-01-17 02:19:00,
2013-01-16 20:24:00,31.9,29.0,30.04,WSW,245,5.0,8.0,89,0.00,,,0.00,Wunderground v.1.15,2013-01-17 02:24:00,
2013-01-16 20:30:00,32.0,29.1,30.04,WSW,252,6.0,7.0,89,0.00,,,0.00,Wunderground v.1.15,2013-01-17 02:30:00,
2013-01-16 20:36:00,32.0,29.1,30.04,SW,219,6.0,8.0,89,0.00,,,0.00,Wunderground v.1.15,2013-01-17 02:36:00,
2013-01-16 20:41:00,32.1,29.2,30.05,SW,223,6.0,6.0,89,0.00,,,0.00,Wunderground v.1.15,2013-01-17 02:41:00,
2013-01-16 20:47:00,32.1,29.2,30.05,SW,232,6.0,8.0,89,0.00,,,0.00,Wunderground v.1.15,2013-01-17 02:47:00,
2013-01-16 20:53:00,32.2,29.3,30.06,WSW,238,6.0,6.0,89,0.00,,,0.00,Wunderground v.1.15,2013-01-17 02:53:00,
2013-01-16 20:59:00,32.4,29.5,30.06,SW,223,5.0,6.0,89,0.00,,,0.00,Wunderground v.1.15,2013-01-17 02:59:00,
2013-01-16 21:04:00,32.5,29.6,30.06,SW,221,3.0,4.0,89,0.00,,,0.00,Wunderground v.1.15,2013-01-17 03:04:00,
2013-01-16 21:10:00,32.6,29.7,30.06,SW,221,2.0,4.0,89,0.00,,,0.00,Wunderground v.1.15,2013-01-17 03:10:00,
2013-01-16 21:16:00,32.6,29.7,30.06,SW,232,2.0,4.0,89,0.00,,,0.00,Wunderground v.1.15,2013-01-17 03:16:00,
2013-01-16 21:22:00,32.7,29.8,30.06,WSW,244,1.0,2.0,89,0.00,,,0.00,Wunderground v.1.15,2013-01-17 03:22:00,
2013-01-16 21:27:00,32.8,30.2,30.06,WSW,245,1.0,2.0,90,0.00,,,0.00,Wunderground v.1.15,2013-01-17 03:27:00,
2013-01-16 21:32:00,32.8,30.2,30.06,WSW,245,1.0,1.0,90,0.00,,,0.00,Wunderground v.1.15,2013-01-17 03:32:00,
2013-01-16 21:38:00,32.8,30.5,30.06,WSW,246,1.0,2.0,91,0.00,,,0.00,Wunderground v.1.15,2013-01-17 03:38:00,
2013-01-16 21:44:00,33.0,31.2,30.06,SW,234,1.0,4.0,93,0.00,,,0.00,Wunderground v.1.15,2013-01-17 03:44:00,
2013-01-16 21:50:00,33.1,31.6,30.06,WSW,254,3.0,5.0,94,0.00,,,0.00,Wunderground v.1.15,2013-01-17 03:50:00,
2013-01-16 21:56:00,33.3,31.8,30.05,WSW,241,5.0,6.0,94,0.00,,,0.00,Wunderground v.1.15,2013-01-17 03:56:00,
2013-01-16 22:02:00,33.2,31.7,30.06,WSW,241,5.0,7.0,94,0.00,,,0.00,Wunderground v.1.15,2013-01-17 04:02:00,
2013-01-16 22:07:00,33.1,31.6,30.05,SW,236,5.0,7.0,94,0.00,,,0.00,Wunderground v.1.15,2013-01-17 04:07:00,
2013-01-16 22:13:00,33.0,31.7,30.05,West,275,5.0,6.0,95,0.00,,,0.00,Wunderground v.1.15,2013-01-17 04:13:00,
2013-01-16 22:19:00,32.9,31.6,30.05,SW,217,5.0,7.0,95,0.00,,,0.00,Wunderground v.1.15,2013-01-17 04:19:00,
2013-01-16 22:25:00,32.8,31.3,30.05,SW,236,6.0,8.0,94,0.00,,,0.00,Wunderground v.1.15,2013-01-17 04:25:00,
2013-01-16 22:30:00,32.7,31.2,30.06,SW,229,5.0,5.0,94,0.00,,,0.00,Wunderground v.1.15,2013-01-17 04:30:00,
2013-01-16 22:35:00,32.5,31.0,30.06,WSW,240,5.0,6.0,94,0.00,,,0.00,Wunderground v.1.15,2013-01-17 04:35:00,
2013-01-16 22:41:00,32.5,31.0,30.06,WSW,257,5.0,5.0,94,0.00,,,0.00,Wunderground v.1.15,2013-01-17 04:41:00,
2013-01-16 22:47:00,32.3,30.8,30.06,West,269,3.0,5.0,94,0.00,,,0.00,Wunderground v.1.15,2013-01-17 04:47:00,
2013-01-16 22:53:00,32.4,30.9,30.07,West,272,3.0,3.0,94,0.00,,,0.00,Wunderground v.1.15,2013-01-17 04:53:00,
2013-01-16 22:59:00,32.6,31.1,30.07,WSW,258,2.0,3.0,94,0.00,,,0.00,Wunderground v.1.15,2013-01-17 04:59:00,
2013-01-16 23:02:00,32.6,31.1,30.07,West,275,2.0,2.0,94,0.00,,,0.00,Wunderground v.1.15,2013-01-17 05:02:00,
2013-01-16 23:03:00,32.6,31.1,30.07,West,278,2.0,2.0,94,0.00,,,0.00,Wunderground v.1.15,2013-01-17 05:03:00,
2013-01-16 23:04:00,32.6,31.1,30.07,West,272,2.0,4.0,94,0.00,,,0.00,Wunderground v.1.15,2013-01-17 05:04:00,
2013-01-16 23:07:00,32.6,30.8,30.08,West,276,3.0,6.0,93,0.00,,,0.00,Wunderground v.1.15,2013-01-17 05:07:00,
2013-01-16 23:13:00,33.7,32.2,30.08,West,269,6.0,11.0,94,0.00,,,0.00,Wunderground v.1.15,2013-01-17 05:13:00,
2013-01-16 23:18:00,34.3,32.5,30.09,West,275,8.0,11.0,93,0.00,,,0.00,Wunderground v.1.15,2013-01-17 05:18:00,
2013-01-16 23:23:00,34.4,32.3,30.09,WNW,302,7.0,7.0,92,0.00,,,0.00,Wunderground v.1.15,2013-01-17 05:23:00,
2013-01-16 23:29:00,34.3,32.2,30.09,NW,307,7.0,9.0,92,0.00,,,0.00,Wunderground v.1.15,2013-01-17 05:29:00,
2013-01-16 23:35:00,34.4,32.3,30.10,WNW,301,8.0,11.0,92,0.00,,,0.00,Wunderground v.1.15,2013-01-17 05:35:00,
2013-01-16 23:41:00,34.1,32.0,30.10,WNW,297,7.0,8.0,92,0.00,,,0.00,Wunderground v.1.15,2013-01-17 05:41:00,
2013-01-16 23:47:00,33.7,31.6,30.11,West,279,6.0,8.0,92,0.00,,,0.00,Wunderground v.1.15,2013-01-17 05:47:00,
2013-01-16 23:53:00,33.5,31.7,30.11,West,272,5.0,7.0,93,0.00,,,0.00,Wunderground v.1.15,2013-01-17 05:53:00,
2013-01-16 23:58:00,33.5,31.7,30.11,West,271,4.0,7.0,93,0.00,,,0.00,Wunderground v.1.15,2013-01-17 05:58:00,